createdAt,value
2023-05-01T00:00:31.670Z,100.00
2023-05-01T00:02:58.016Z,100.00
2023-05-01T00:05:24.448Z,100.00
2023-05-01T00:07:50.716Z,100.00
2023-05-01T00:10:16.982Z,100.00
2023-05-01T00:12:43.248Z,100.00
2023-05-01T00:15:09.511Z,100.00
2023-05-01T00:17:35.809Z,100.00
2023-05-01T00:20:02.108Z,100.00
2023-05-01T00:22:28.340Z,100.00
2023-05-01T00:24:54.602Z,100.00
2023-05-01T00:27:20.844Z,100.00
2023-05-01T00:29:47.100Z,100.00
2023-05-01T00:32:13.414Z,100.00
2023-05-01T00:34:39.689Z,100.00
2023-05-01T00:37:05.976Z,100.00
2023-05-01T00:39:32.257Z,100.00
2023-05-01T00:41:58.515Z,100.00
2023-05-01T00:44:24.776Z,100.00
2023-05-01T00:46:51.029Z,100.00
2023-05-01T00:49:17.324Z,100.00
2023-05-01T00:51:43.556Z,100.00
2023-05-01T00:54:09.808Z,100.00
2023-05-01T00:56:36.040Z,100.00
2023-05-01T00:59:02.316Z,100.00
2023-05-01T01:01:28.658Z,99.97
2023-05-01T01:03:55.035Z,100.00
2023-05-01T01:06:21.399Z,100.00
2023-05-01T01:08:47.726Z,100.00
2023-05-01T01:11:14.025Z,100.00
2023-05-01T01:13:40.305Z,100.00
2023-05-01T01:16:06.620Z,100.00
2023-05-01T01:18:32.926Z,100.00
2023-05-01T01:20:59.242Z,100.00
2023-05-01T01:23:25.535Z,100.00
2023-05-01T01:25:51.775Z,100.00
2023-05-01T01:28:18.103Z,100.00
2023-05-01T01:30:44.400Z,100.00
2023-05-01T01:33:10.759Z,100.00
2023-05-01T01:35:37.007Z,100.00
2023-05-01T01:38:03.342Z,100.00
2023-05-01T01:40:29.671Z,100.00
2023-05-01T01:42:56.002Z,100.00
2023-05-01T01:45:22.260Z,100.00
2023-05-01T01:47:48.584Z,100.00
2023-05-01T01:50:14.910Z,99.65
2023-05-01T01:52:41.550Z,100.00
2023-05-01T01:55:07.829Z,100.00
2023-05-01T01:57:34.144Z,100.00
2023-05-01T02:00:00.439Z,98.94
2023-05-01T02:02:26.883Z,100.00
2023-05-01T02:04:53.322Z,100.00
2023-05-01T02:07:19.636Z,97.58
2023-05-01T02:09:45.907Z,100.00
2023-05-01T02:12:12.162Z,99.60
2023-05-01T02:14:38.481Z,99.59
2023-05-01T02:17:04.764Z,97.83
2023-05-01T02:19:31.044Z,96.29
2023-05-01T02:21:57.334Z,94.51
2023-05-01T02:24:23.572Z,92.22
2023-05-01T02:26:49.883Z,93.18
2023-05-01T02:29:16.154Z,96.17
2023-05-01T02:31:42.506Z,93.84
2023-05-01T02:34:08.812Z,97.62
2023-05-01T02:36:35.071Z,97.40
2023-05-01T02:39:01.339Z,96.88
2023-05-01T02:41:27.593Z,98.38
2023-05-01T02:43:53.860Z,97.43
2023-05-01T02:46:20.173Z,96.15
2023-05-01T02:48:46.486Z,96.51
2023-05-01T02:51:12.751Z,95.38
2023-05-01T02:53:39.159Z,95.51
2023-05-01T02:56:05.449Z,95.40
2023-05-01T02:58:31.815Z,94.62
2023-05-01T03:00:58.156Z,96.62
2023-05-01T03:03:24.564Z,95.29
2023-05-01T03:05:50.856Z,96.22
2023-05-01T03:08:17.182Z,96.08
2023-05-01T03:10:43.489Z,98.34
2023-05-01T03:13:09.756Z,95.55
2023-05-01T03:15:36.052Z,97.14
2023-05-01T03:18:02.378Z,96.70
2023-05-01T03:20:28.765Z,99.13
2023-05-01T03:22:55.070Z,100.00
2023-05-01T03:25:21.354Z,99.39
2023-05-01T03:27:47.729Z,97.97
2023-05-01T03:30:14.029Z,94.36
2023-05-01T03:32:40.435Z,93.15
2023-05-01T03:35:06.772Z,95.46
2023-05-01T03:37:33.124Z,95.24
2023-05-01T03:39:59.460Z,96.63
2023-05-01T03:42:25.745Z,96.27
2023-05-01T03:44:52.038Z,96.83
2023-05-01T03:47:18.313Z,98.56
2023-05-01T03:49:44.586Z,96.47
2023-05-01T03:52:10.906Z,95.93
2023-05-01T03:54:37.190Z,93.29
2023-05-01T03:57:03.469Z,93.83
2023-05-01T03:59:29.769Z,95.70
2023-05-01T04:01:56.201Z,98.68
2023-05-01T04:04:22.527Z,99.50
2023-05-01T04:06:48.903Z,97.86
2023-05-01T04:09:15.188Z,97.20
2023-05-01T04:11:41.503Z,96.67
2023-05-01T04:14:07.813Z,94.93
2023-05-01T04:16:34.253Z,92.95
2023-05-01T04:19:00.676Z,93.02
2023-05-01T04:21:26.990Z,93.61
2023-05-01T04:23:53.234Z,94.97
2023-05-01T04:26:19.532Z,95.08
2023-05-01T04:28:45.765Z,95.32
2023-05-01T04:31:12.085Z,95.60
2023-05-01T04:33:38.435Z,96.61
2023-05-01T04:36:04.688Z,97.92
2023-05-01T04:38:30.966Z,100.00
2023-05-01T04:40:57.194Z,97.40
2023-05-01T04:43:23.480Z,96.96
2023-05-01T04:45:49.773Z,95.86
2023-05-01T04:48:16.080Z,96.66
2023-05-01T04:50:42.392Z,98.35
2023-05-01T04:53:08.658Z,94.94
2023-05-01T04:55:35.028Z,95.41
2023-05-01T04:58:01.378Z,94.60
2023-05-01T05:00:27.616Z,98.72
2023-05-01T05:02:53.933Z,100.00
2023-05-01T05:05:20.269Z,99.48
2023-05-01T05:07:46.612Z,98.55
2023-05-01T05:10:12.964Z,100.00
2023-05-01T05:12:39.212Z,100.00
2023-05-01T05:15:05.517Z,99.25
2023-05-01T05:17:31.814Z,97.85
2023-05-01T05:19:58.166Z,100.00
2023-05-01T05:22:24.683Z,99.54
2023-05-01T05:24:50.960Z,98.71
2023-05-01T05:27:17.204Z,97.48
2023-05-01T05:29:43.446Z,94.93
2023-05-01T05:32:09.734Z,95.63
2023-05-01T05:34:35.992Z,97.26
2023-05-01T05:37:02.237Z,97.92
2023-05-01T05:39:28.463Z,95.38
2023-05-01T05:41:54.751Z,96.42
2023-05-01T05:44:21.053Z,99.25
2023-05-01T05:46:47.281Z,95.73
2023-05-01T05:49:13.531Z,93.84
2023-05-01T05:51:39.834Z,94.52
2023-05-01T05:54:06.143Z,95.31
2023-05-01T05:56:32.452Z,95.84
2023-05-01T05:58:58.690Z,94.13
2023-05-01T06:01:24.963Z,93.71
2023-05-01T06:03:51.266Z,97.31
2023-05-01T06:06:18.647Z,96.09
2023-05-01T06:08:46.486Z,95.07
2023-05-01T06:11:12.744Z,97.52
2023-05-01T06:13:39.002Z,96.93
2023-05-01T06:16:05.403Z,96.81
2023-05-01T06:18:31.834Z,97.61
2023-05-01T06:20:58.112Z,97.38
2023-05-01T06:23:24.362Z,98.07
2023-05-01T06:25:50.709Z,97.42
2023-05-01T06:28:16.972Z,99.69
2023-05-01T06:30:43.231Z,100.00
2023-05-01T06:33:09.737Z,100.00
2023-05-01T06:35:36.091Z,100.00
2023-05-01T06:38:02.373Z,100.00
2023-05-01T06:40:28.767Z,100.00
2023-05-01T06:42:55.158Z,100.00
2023-05-01T06:45:21.447Z,100.00
2023-05-01T06:47:47.767Z,100.00
2023-05-01T06:50:14.063Z,97.18
2023-05-01T06:52:40.334Z,94.74
2023-05-01T06:55:06.570Z,92.27
2023-05-01T06:57:32.884Z,94.16
2023-05-01T06:59:59.305Z,93.03
2023-05-01T07:02:25.812Z,92.30
2023-05-01T07:04:52.106Z,94.53
2023-05-01T07:07:18.328Z,91.33
2023-05-01T07:09:44.646Z,93.01
2023-05-01T07:12:10.888Z,91.62
2023-05-01T07:14:37.154Z,87.46
2023-05-01T07:17:03.709Z,83.67
2023-05-01T07:19:30.221Z,87.88
2023-05-01T07:21:56.653Z,89.42
2023-05-01T07:24:23.105Z,87.01
2023-05-01T07:26:49.368Z,82.72
2023-05-01T07:29:15.659Z,83.61
2023-05-01T07:31:41.995Z,79.90
2023-05-01T07:34:08.256Z,80.37
2023-05-01T07:36:34.491Z,80.59
2023-05-01T07:39:00.732Z,80.65
2023-05-01T07:41:26.998Z,81.75
2023-05-01T07:43:53.248Z,82.49
2023-05-01T07:46:19.601Z,80.89
2023-05-01T07:48:46.353Z,84.12
2023-05-01T07:51:12.621Z,84.95
2023-05-01T07:53:38.952Z,81.87
2023-05-01T07:56:05.271Z,82.68
2023-05-01T07:58:31.492Z,82.06
2023-05-01T08:00:57.771Z,84.39
2023-05-01T08:03:24.111Z,82.63
2023-05-01T08:05:50.583Z,83.47
2023-05-01T08:08:16.833Z,83.52
2023-05-01T08:10:43.096Z,85.35
2023-05-01T08:13:09.406Z,86.75
2023-05-01T08:15:35.715Z,88.57
2023-05-01T08:18:01.994Z,85.66
2023-05-01T08:20:28.353Z,82.33
2023-05-01T08:22:54.611Z,84.17
2023-05-01T08:25:20.871Z,87.29
2023-05-01T08:27:47.115Z,82.46
2023-05-01T08:30:13.407Z,86.46
2023-05-01T08:32:39.732Z,89.38
2023-05-01T08:35:06.045Z,94.97
2023-05-01T08:37:32.408Z,90.47
2023-05-01T08:39:58.799Z,89.36
2023-05-01T08:42:25.177Z,91.82
2023-05-01T08:44:51.475Z,92.15
2023-05-01T08:47:17.781Z,89.66
2023-05-01T08:49:46.793Z,88.69
2023-05-01T08:52:13.113Z,87.32
2023-05-01T08:54:39.391Z,88.23
2023-05-01T08:57:05.961Z,89.92
2023-05-01T08:59:32.288Z,93.87
2023-05-01T09:01:58.639Z,89.01
2023-05-01T09:04:25.042Z,84.59
2023-05-01T09:06:51.373Z,80.97
2023-05-01T09:09:17.683Z,90.49
2023-05-01T09:11:43.950Z,84.82
2023-05-01T09:14:10.179Z,85.46
2023-05-01T09:16:36.474Z,85.37
2023-05-01T09:19:02.747Z,87.95
2023-05-01T09:21:29.027Z,86.81
2023-05-01T09:23:55.323Z,86.47
2023-05-01T09:26:21.588Z,86.64
2023-05-01T09:28:47.836Z,86.72
2023-05-01T09:31:14.090Z,86.06
2023-05-01T09:33:40.368Z,87.92
2023-05-01T09:36:06.618Z,87.71
2023-05-01T09:38:32.900Z,88.24
2023-05-01T09:40:59.182Z,91.93
2023-05-01T09:43:25.440Z,92.11
2023-05-01T09:45:51.728Z,89.92
2023-05-01T09:48:17.997Z,88.50
2023-05-01T09:50:44.269Z,89.50
2023-05-01T09:53:10.510Z,94.85
2023-05-01T09:55:36.798Z,91.38
2023-05-01T09:58:03.011Z,89.58
2023-05-01T10:00:29.232Z,90.23
2023-05-01T10:02:55.641Z,88.92
2023-05-01T10:05:22.142Z,88.67
2023-05-01T10:07:49.489Z,91.27
2023-05-01T10:10:15.747Z,93.65
2023-05-01T10:12:41.970Z,90.23
2023-05-01T10:15:17.626Z,87.53
2023-05-01T10:17:50.706Z,88.74
2023-05-01T10:20:17.044Z,91.46
2023-05-01T10:22:43.376Z,88.77
2023-05-01T10:25:09.690Z,91.13
2023-05-01T10:27:35.964Z,88.32
2023-05-01T10:30:02.215Z,84.88
2023-05-01T10:32:28.509Z,89.93
2023-05-01T10:34:54.873Z,89.09
2023-05-01T10:37:21.292Z,85.85
2023-05-01T10:39:47.559Z,90.20
2023-05-01T10:42:13.876Z,93.06
2023-05-01T10:44:40.121Z,88.80
2023-05-01T10:47:06.345Z,89.16
2023-05-01T10:49:32.766Z,89.24
2023-05-01T10:51:59.013Z,89.71
2023-05-01T10:54:25.284Z,90.13
2023-05-01T10:56:51.561Z,88.53
2023-05-01T10:59:17.802Z,89.23
2023-05-01T11:01:44.068Z,90.59
2023-05-01T11:04:10.321Z,85.87
2023-05-01T11:06:36.774Z,87.78
2023-05-01T11:09:03.168Z,83.80
2023-05-01T11:11:29.429Z,80.63
2023-05-01T11:13:55.722Z,83.62
2023-05-01T11:16:22.080Z,85.65
2023-05-01T11:18:48.415Z,82.96
2023-05-01T11:21:14.660Z,85.97
2023-05-01T11:23:40.893Z,82.65
2023-05-01T11:26:07.137Z,80.79
2023-05-01T11:28:33.366Z,80.00
2023-05-01T11:30:59.605Z,80.88
2023-05-01T11:33:25.928Z,81.75
2023-05-01T11:35:52.304Z,83.16
2023-05-01T11:38:18.540Z,83.08
2023-05-01T11:40:44.810Z,81.71
2023-05-01T11:43:11.158Z,81.87
2023-05-01T11:45:37.705Z,85.09
2023-05-01T11:48:05.104Z,86.12
2023-05-01T11:50:32.785Z,82.45
2023-05-01T11:52:59.035Z,83.29
2023-05-01T11:55:25.290Z,80.39
2023-05-01T11:57:51.633Z,78.96
2023-05-01T12:00:17.897Z,77.23
2023-05-01T12:02:44.195Z,78.26
2023-05-01T12:05:10.618Z,76.57
2023-05-01T12:07:36.841Z,76.34
2023-05-01T12:10:03.156Z,75.00
2023-05-01T12:12:29.430Z,76.94
2023-05-01T12:14:56.044Z,78.04
2023-05-01T12:17:22.806Z,79.43
2023-05-01T12:19:49.150Z,80.47
2023-05-01T12:22:15.428Z,82.87
2023-05-01T12:24:41.722Z,78.41
2023-05-01T12:27:07.960Z,81.13
2023-05-01T12:29:34.250Z,82.19
2023-05-01T12:32:00.576Z,80.29
2023-05-01T12:34:26.825Z,76.96
2023-05-01T12:36:53.177Z,75.58
2023-05-01T12:39:19.425Z,73.98
2023-05-01T12:41:45.691Z,73.26
2023-05-01T12:44:12.116Z,74.27
2023-05-01T12:46:38.820Z,75.04
2023-05-01T12:49:05.152Z,75.86
2023-05-01T12:51:31.410Z,78.42
2023-05-01T12:53:57.677Z,78.82
2023-05-01T12:56:23.971Z,77.64
2023-05-01T12:58:50.317Z,75.19
2023-05-01T13:01:16.628Z,75.13
2023-05-01T13:03:43.020Z,75.78
2023-05-01T13:06:09.385Z,73.71
2023-05-01T13:08:35.968Z,74.78
2023-05-01T13:11:02.228Z,76.02
2023-05-01T13:13:28.546Z,74.66
2023-05-01T13:15:54.824Z,77.94
2023-05-01T13:18:21.126Z,75.30
2023-05-01T13:20:47.482Z,73.29
2023-05-01T13:23:13.752Z,73.14
2023-05-01T13:25:40.021Z,75.98
2023-05-01T13:28:06.288Z,76.55
2023-05-01T13:30:32.547Z,75.10
2023-05-01T13:32:58.960Z,74.78
2023-05-01T13:35:25.329Z,75.41
2023-05-01T13:37:51.586Z,75.82
2023-05-01T13:40:17.819Z,80.41
2023-05-01T13:42:44.138Z,83.86
2023-05-01T13:45:10.438Z,81.23
2023-05-01T13:47:38.962Z,78.78
2023-05-01T13:50:06.446Z,80.98
2023-05-01T13:52:32.738Z,83.18
2023-05-01T13:54:59.199Z,83.57
2023-05-01T13:57:25.646Z,83.83
2023-05-01T13:59:51.901Z,84.51
2023-05-01T14:02:18.196Z,83.20
2023-05-01T14:04:44.454Z,77.16
2023-05-01T14:07:10.728Z,81.60
2023-05-01T14:09:36.960Z,83.44
2023-05-01T14:12:03.221Z,83.58
2023-05-01T14:14:29.503Z,81.90
2023-05-01T14:16:55.789Z,79.56
2023-05-01T14:19:22.089Z,79.75
2023-05-01T14:21:48.364Z,79.87
2023-05-01T14:24:14.751Z,73.36
2023-05-01T14:26:41.005Z,72.34
2023-05-01T14:29:07.231Z,72.39
2023-05-01T14:31:33.531Z,76.56
2023-05-01T14:33:59.862Z,75.46
2023-05-01T14:36:26.130Z,75.83
2023-05-01T14:38:52.415Z,74.72
2023-05-01T14:41:18.705Z,75.12
2023-05-01T14:43:44.932Z,74.54
2023-05-01T14:46:11.251Z,73.35
2023-05-01T14:48:37.646Z,70.65
2023-05-01T14:51:03.922Z,72.83
2023-05-01T14:53:30.221Z,76.25
2023-05-01T14:55:56.551Z,78.59
2023-05-01T14:58:22.806Z,78.99
2023-05-01T15:00:49.089Z,76.73
2023-05-01T15:03:15.516Z,76.27
2023-05-01T15:05:41.980Z,75.57
2023-05-01T15:08:08.225Z,81.74
2023-05-01T15:10:34.489Z,78.28
2023-05-01T15:13:00.784Z,80.29
2023-05-01T15:15:27.016Z,77.45
2023-05-01T15:17:53.300Z,77.51
2023-05-01T15:20:19.566Z,78.03
2023-05-01T15:22:45.851Z,78.70
2023-05-01T15:25:12.101Z,76.81
2023-05-01T15:27:38.369Z,75.59
2023-05-01T15:30:04.606Z,75.70
2023-05-01T15:32:31.024Z,73.22
2023-05-01T15:34:57.484Z,73.54
2023-05-01T15:37:23.919Z,77.63
2023-05-01T15:39:50.215Z,74.17
2023-05-01T15:42:16.475Z,77.70
2023-05-01T15:44:42.711Z,76.64
2023-05-01T15:47:08.963Z,77.24
2023-05-01T15:49:35.228Z,79.72
2023-05-01T15:52:01.490Z,79.28
2023-05-01T15:54:27.792Z,77.09
2023-05-01T15:56:54.051Z,75.83
2023-05-01T15:59:20.339Z,76.55
2023-05-01T16:01:46.635Z,75.51
2023-05-01T16:04:12.969Z,77.38
2023-05-01T16:06:39.308Z,70.32
2023-05-01T16:09:05.659Z,72.29
2023-05-01T16:11:31.902Z,78.37
2023-05-01T16:13:58.149Z,78.58
2023-05-01T16:16:24.430Z,78.54
2023-05-01T16:18:50.780Z,74.51
2023-05-01T16:21:19.614Z,73.16
2023-05-01T16:23:46.165Z,71.51
2023-05-01T16:26:12.418Z,72.33
2023-05-01T16:28:38.681Z,76.04
2023-05-01T16:31:13.022Z,76.44
2023-05-01T16:33:46.106Z,78.19
2023-05-01T16:36:12.348Z,79.73
2023-05-01T16:38:38.578Z,76.91
2023-05-01T16:41:04.832Z,77.39
2023-05-01T16:43:31.092Z,78.95
2023-05-01T16:45:57.464Z,82.00
2023-05-01T16:48:23.819Z,82.46
2023-05-01T16:50:50.105Z,79.85
2023-05-01T16:53:16.400Z,81.87
2023-05-01T16:55:42.673Z,85.65
2023-05-01T16:58:08.880Z,81.74
2023-05-01T17:00:35.156Z,83.43
2023-05-01T17:03:01.461Z,80.65
2023-05-01T17:05:27.786Z,82.69
2023-05-01T17:07:54.080Z,84.68
2023-05-01T17:10:20.313Z,85.91
2023-05-01T17:12:46.608Z,85.49
2023-05-01T17:15:12.878Z,84.76
2023-05-01T17:17:39.193Z,85.05
2023-05-01T17:20:05.475Z,85.89
2023-05-01T17:22:31.723Z,87.50
2023-05-01T17:24:57.973Z,88.18
2023-05-01T17:27:24.237Z,88.53
2023-05-01T17:29:50.554Z,86.49
2023-05-01T17:32:29.586Z,87.28
2023-05-01T17:35:03.011Z,89.42
2023-05-01T17:37:29.270Z,88.26
2023-05-01T17:39:55.573Z,89.23
2023-05-01T17:42:21.845Z,89.93
2023-05-01T17:44:48.089Z,87.96
2023-05-01T17:47:14.317Z,89.85
2023-05-01T17:49:40.551Z,89.84
2023-05-01T17:52:06.804Z,91.16
2023-05-01T17:54:33.049Z,92.85
2023-05-01T17:56:59.282Z,94.28
2023-05-01T17:59:25.566Z,97.47
2023-05-01T18:01:51.968Z,97.65
2023-05-01T18:04:18.633Z,97.46
2023-05-01T18:06:45.210Z,98.14
2023-05-01T18:09:11.510Z,95.98
2023-05-01T18:11:38.894Z,96.15
2023-05-01T18:14:05.169Z,95.73
2023-05-01T18:16:31.485Z,95.77
2023-05-01T18:18:57.726Z,96.46
2023-05-01T18:21:23.953Z,96.25
2023-05-01T18:23:50.241Z,95.91
2023-05-01T18:26:16.483Z,97.80
2023-05-01T18:28:42.756Z,99.20
2023-05-01T18:31:09.047Z,98.40
2023-05-01T18:33:35.350Z,99.13
2023-05-01T18:36:01.660Z,99.77
2023-05-01T18:38:28.609Z,97.25
2023-05-01T18:40:54.932Z,98.67
2023-05-01T18:43:21.221Z,99.32
2023-05-01T18:45:47.476Z,95.66
2023-05-01T18:48:13.778Z,95.87
2023-05-01T18:50:40.073Z,95.70
2023-05-01T18:53:06.290Z,93.87
2023-05-01T18:55:32.548Z,95.33
2023-05-01T18:57:58.835Z,90.25
2023-05-01T19:00:25.088Z,89.81
2023-05-01T19:02:51.514Z,90.28
2023-05-01T19:05:18.229Z,90.44
2023-05-01T19:07:44.498Z,86.65
2023-05-01T19:10:10.740Z,87.94
2023-05-01T19:12:37.084Z,89.20
2023-05-01T19:15:03.323Z,90.60
2023-05-01T19:17:29.584Z,90.19
2023-05-01T19:19:55.990Z,88.11
2023-05-01T19:22:22.289Z,89.99
2023-05-01T19:24:48.542Z,90.94
2023-05-01T19:27:14.795Z,92.08
2023-05-01T19:29:41.064Z,94.50
2023-05-01T19:32:07.556Z,93.02
2023-05-01T19:34:33.934Z,93.77
2023-05-01T19:37:00.228Z,93.21
2023-05-01T19:39:26.518Z,94.10
2023-05-01T19:41:52.770Z,93.38
2023-05-01T19:44:19.097Z,91.78
2023-05-01T19:46:45.422Z,91.11
2023-05-01T19:49:11.671Z,89.61
2023-05-01T19:51:37.926Z,89.97
2023-05-01T19:54:04.174Z,87.73
2023-05-01T19:56:30.459Z,89.48
2023-05-01T19:58:56.764Z,89.39
2023-05-01T20:01:23.043Z,89.77
2023-05-01T20:03:49.384Z,91.08
2023-05-01T20:06:15.743Z,90.99
2023-05-01T20:08:41.982Z,91.43
2023-05-01T20:11:08.244Z,92.95
2023-05-01T20:13:34.497Z,87.74
2023-05-01T20:16:00.765Z,88.23
2023-05-01T20:18:27.034Z,89.75
2023-05-01T20:20:53.298Z,91.20
2023-05-01T20:23:19.561Z,93.69
2023-05-01T20:25:45.834Z,95.70
2023-05-01T20:28:12.096Z,92.07
2023-05-01T20:30:38.372Z,94.01
2023-05-01T20:33:04.657Z,91.61
2023-05-01T20:35:30.979Z,94.04
2023-05-01T20:37:57.232Z,93.62
2023-05-01T20:40:23.491Z,94.59
2023-05-01T20:42:49.729Z,95.31
2023-05-01T20:45:15.967Z,97.12
2023-05-01T20:47:42.230Z,95.14
2023-05-01T20:50:08.524Z,94.79
2023-05-01T20:52:34.774Z,95.65
2023-05-01T20:55:01.032Z,97.16
2023-05-01T20:57:27.267Z,95.09
2023-05-01T20:59:53.570Z,95.51
2023-05-01T21:02:19.855Z,93.99
2023-05-01T21:04:46.095Z,91.34
2023-05-01T21:07:12.328Z,92.44
2023-05-01T21:09:38.550Z,91.71
2023-05-01T21:12:04.773Z,91.27
2023-05-01T21:14:31.053Z,92.29
2023-05-01T21:16:57.330Z,92.42
2023-05-01T21:19:23.614Z,92.92
2023-05-01T21:21:49.922Z,91.92
2023-05-01T21:24:16.158Z,95.16
2023-05-01T21:26:42.421Z,93.04
2023-05-01T21:29:08.653Z,91.06
2023-05-01T21:31:35.035Z,89.74
2023-05-01T21:34:01.306Z,90.62
2023-05-01T21:36:27.541Z,90.12
2023-05-01T21:38:53.775Z,89.26
2023-05-01T21:41:20.016Z,89.31
2023-05-01T21:43:46.306Z,88.89
2023-05-01T21:46:12.569Z,88.96
2023-05-01T21:48:38.800Z,89.32
2023-05-01T21:51:05.094Z,89.58
2023-05-01T21:53:31.333Z,88.89
2023-05-01T21:55:57.574Z,89.82
2023-05-01T21:58:23.800Z,88.46
2023-05-01T22:00:50.141Z,87.54
2023-05-01T22:03:16.537Z,88.16
2023-05-01T22:05:42.893Z,87.91
2023-05-01T22:08:09.136Z,87.96
2023-05-01T22:10:35.375Z,86.35
2023-05-01T22:13:01.617Z,85.45
2023-05-01T22:15:27.845Z,87.74
2023-05-01T22:17:54.238Z,87.23
2023-05-01T22:20:20.508Z,88.17
2023-05-01T22:22:46.777Z,88.32
2023-05-01T22:25:13.051Z,85.16
2023-05-01T22:27:39.360Z,85.75
2023-05-01T22:30:05.659Z,85.33
2023-05-01T22:32:31.990Z,87.05
2023-05-01T22:34:58.307Z,86.31
2023-05-01T22:37:24.574Z,87.58
2023-05-01T22:39:50.823Z,85.58
2023-05-01T22:42:17.086Z,85.76
2023-05-01T22:44:43.338Z,85.22
2023-05-01T22:47:09.568Z,86.81
2023-05-01T22:49:35.895Z,86.33
2023-05-01T22:52:02.137Z,87.44
2023-05-01T22:54:28.383Z,88.78
2023-05-01T22:56:54.657Z,87.35
2023-05-01T22:59:20.893Z,85.98
2023-05-01T23:01:47.170Z,85.56
2023-05-01T23:04:13.526Z,87.37
2023-05-01T23:06:39.934Z,88.34
2023-05-01T23:09:06.316Z,89.05
2023-05-01T23:11:32.545Z,90.32
2023-05-01T23:13:58.803Z,90.04
2023-05-01T23:16:25.282Z,87.39
2023-05-01T23:18:51.602Z,84.29
2023-05-01T23:21:17.856Z,87.67
2023-05-01T23:23:44.113Z,88.68
2023-05-01T23:26:10.380Z,88.62
2023-05-01T23:28:36.632Z,90.39
2023-05-01T23:31:02.939Z,92.05
2023-05-01T23:33:29.191Z,93.38
2023-05-01T23:35:55.446Z,93.51
2023-05-01T23:38:21.717Z,93.44
2023-05-01T23:40:47.979Z,92.82
2023-05-01T23:43:14.223Z,92.14
2023-05-01T23:45:40.463Z,92.37
2023-05-01T23:48:06.775Z,93.03
2023-05-01T23:50:33.072Z,92.47
2023-05-01T23:52:59.313Z,91.82
2023-05-01T23:55:25.549Z,92.43
2023-05-01T23:57:51.799Z,91.88
